sensor_id;sensor_type;location;lat;lon;timestamp;pressure;altitude;pressure_sealevel;temperature;humidity
6136;BME280;24008;42.664;23.372;2023-04-09T00:00:09;94843.06;;;5.54;100.00
6136;BME280;24008;42.664;23.372;2023-04-09T00:02:37;94937.22;;;6.21;100.00
6136;BME280;24008;42.664;23.372;2023-04-09T00:05:04;94953.81;;;6.14;100.00
6136;BME280;24008;42.664;23.372;2023-04-09T00:07:31;94941.34;;;6.11;100.00
6136;BME280;24008;42.664;23.372;2023-04-09T00:09:58;94944.09;;;6.08;100.00
6136;BME280;24008;42.664;23.372;2023-04-09T00:12:25;94944.78;;;6.10;100.00
6136;BME280;24008;42.664;23.372;2023-04-09T00:14:52;94835.31;;;5.32;100.00
6136;BME280;24008;42.664;23.372;2023-04-09T00:17:18;94921.31;;;5.83;100.00
6136;BME280;24008;42.664;23.372;2023-04-09T00:19:47;94879.22;;;5.56;100.00
6136;BME280;24008;42.664;23.372;2023-04-09T00:22:14;94958.25;;;5.99;100.00
6136;BME280;24008;42.664;23.372;2023-04-09T00:24:40;94948.00;;;6.01;100.00
6136;BME280;24008;42.664;23.372;2023-04-09T00:27:07;94925.47;;;5.84;100.00
6136;BME280;24008;42.664;23.372;2023-04-09T00:29:34;94955.97;;;6.07;100.00
6136;BME280;24008;42.664;23.372;2023-04-09T00:32:01;94962.97;;;6.04;100.00
6136;BME280;24008;42.664;23.372;2023-04-09T00:34:27;94953.06;;;6.01;100.00
6136;BME280;24008;42.664;23.372;2023-04-09T00:36:56;94849.59;;;5.33;100.00
6136;BME280;24008;42.664;23.372;2023-04-09T00:39:22;94953.47;;;5.95;100.00
6136;BME280;24008;42.664;23.372;2023-04-09T00:41:49;94891.50;;;5.62;100.00
6136;BME280;24008;42.664;23.372;2023-04-09T00:44:16;94883.38;;;5.57;100.00
6136;BME280;24008;42.664;23.372;2023-04-09T00:46:42;94953.06;;;6.01;100.00
6136;BME280;24008;42.664;23.372;2023-04-09T00:49:09;94893.72;;;5.67;100.00
6136;BME280;24008;42.664;23.372;2023-04-09T00:51:36;94847.13;;;5.44;100.00
6136;BME280;24008;42.664;23.372;2023-04-09T00:54:05;94941.28;;;6.00;100.00
6136;BME280;24008;42.664;23.372;2023-04-09T00:56:33;94914.63;;;5.82;100.00
6136;BME280;24008;42.664;23.372;2023-04-09T00:59:01;94938.97;;;5.97;100.00
6136;BME280;24008;42.664;23.372;2023-04-09T01:01:28;94859.13;;;5.42;100.00
6136;BME280;24008;42.664;23.372;2023-04-09T01:03:55;94767.75;;;4.83;100.00
6136;BME280;24008;42.664;23.372;2023-04-09T01:06:28;94960.69;;;6.01;100.00
6136;BME280;24008;42.664;23.372;2023-04-09T01:09:02;94955.59;;;6.01;100.00
6136;BME280;24008;42.664;23.372;2023-04-09T01:11:37;94966.66;;;6.00;100.00
6136;BME280;24008;42.664;23.372;2023-04-09T01:14:14;94959.75;;;6.02;100.00
6136;BME280;24008;42.664;23.372;2023-04-09T01:16:50;94927.22;;;5.83;100.00
6136;BME280;24008;42.664;23.372;2023-04-09T01:19:27;94921.31;;;5.83;100.00
6136;BME280;24008;42.664;23.372;2023-04-09T01:22:01;94955.34;;;6.04;100.00
6136;BME280;24008;42.664;23.372;2023-04-09T01:24:39;94937.88;;;5.88;100.00
6136;BME280;24008;42.664;23.372;2023-04-09T01:27:12;94935.00;;;5.93;100.00
6136;BME280;24008;42.664;23.372;2023-04-09T01:29:50;94957.31;;;6.00;100.00
6136;BME280;24008;42.664;23.372;2023-04-09T01:32:19;94961.69;;;5.98;100.00
6136;BME280;24008;42.664;23.372;2023-04-09T01:34:47;94960.97;;;5.96;100.00
6136;BME280;24008;42.664;23.372;2023-04-09T01:37:14;94938.31;;;5.69;100.00
6136;BME280;24008;42.664;23.372;2023-04-09T01:39:42;94964.25;;;5.86;100.00
6136;BME280;24008;42.664;23.372;2023-04-09T01:42:10;94936.81;;;5.67;100.00
6136;BME280;24008;42.664;23.372;2023-04-09T01:44:38;94964.25;;;5.86;100.00
6136;BME280;24008;42.664;23.372;2023-04-09T01:47:07;94939.56;;;5.64;100.00
6136;BME280;24008;42.664;23.372;2023-04-09T01:49:34;94956.94;;;5.81;100.00
6136;BME280;24008;42.664;23.372;2023-04-09T01:52:01;94963.44;;;5.85;100.00
6136;BME280;24008;42.664;23.372;2023-04-09T01:54:28;94955.44;;;5.78;100.00
6136;BME280;24008;42.664;23.372;2023-04-09T01:56:56;94951.88;;;5.81;100.00
6136;BME280;24008;42.664;23.372;2023-04-09T01:59:23;94884.66;;;5.39;100.00
6136;BME280;24008;42.664;23.372;2023-04-09T02:01:54;94951.28;;;5.77;100.00
6136;BME280;24008;42.664;23.372;2023-04-09T02:04:31;94949.66;;;5.76;100.00
6136;BME280;24008;42.664;23.372;2023-04-09T02:07:04;94951.69;;;5.71;100.00
6136;BME280;24008;42.664;23.372;2023-04-09T02:09:33;94960.31;;;5.69;100.00
6136;BME280;24008;42.664;23.372;2023-04-09T02:12:03;94958.31;;;5.61;100.00
6136;BME280;24008;42.664;23.372;2023-04-09T02:14:31;94883.31;;;5.10;100.00
6136;BME280;24008;42.664;23.372;2023-04-09T02:16:58;94970.38;;;5.58;100.00
6136;BME280;24008;42.664;23.372;2023-04-09T02:19:38;94958.75;;;5.55;100.00
6136;BME280;24008;42.664;23.372;2023-04-09T02:22:06;94782.72;;;4.37;100.00
6136;BME280;24008;42.664;23.372;2023-04-09T02:24:32;94901.53;;;5.27;100.00
6136;BME280;24008;42.664;23.372;2023-04-09T02:26:59;94895.47;;;5.17;100.00
6136;BME280;24008;42.664;23.372;2023-04-09T02:29:27;94951.16;;;5.55;100.00
6136;BME280;24008;42.664;23.372;2023-04-09T02:31:53;94957.81;;;5.56;100.00
6136;BME280;24008;42.664;23.372;2023-04-09T02:34:20;94961.06;;;5.58;100.00
6136;BME280;24008;42.664;23.372;2023-04-09T02:36:48;94956.22;;;5.55;100.00
6136;BME280;24008;42.664;23.372;2023-04-09T02:39:15;94957.44;;;5.50;100.00
6136;BME280;24008;42.664;23.372;2023-04-09T02:41:42;94948.22;;;5.49;100.00
6136;BME280;24008;42.664;23.372;2023-04-09T02:44:09;94916.13;;;5.24;100.00
6136;BME280;24008;42.664;23.372;2023-04-09T02:46:37;94857.19;;;4.84;100.00
6136;BME280;24008;42.664;23.372;2023-04-09T02:49:04;94954.41;;;5.44;100.00
6136;BME280;24008;42.664;23.372;2023-04-09T02:51:33;94840.81;;;4.77;100.00
6136;BME280;24008;42.664;23.372;2023-04-09T02:54:01;94922.81;;;5.25;100.00
6136;BME280;24008;42.664;23.372;2023-04-09T02:56:28;94894.69;;;5.04;100.00
6136;BME280;24008;42.664;23.372;2023-04-09T02:58:55;94947.69;;;5.43;100.00
6136;BME280;24008;42.664;23.372;2023-04-09T03:01:22;94942.06;;;5.40;100.00
6136;BME280;24008;42.664;23.372;2023-04-09T03:03:48;94903.88;;;5.18;100.00
6136;BME280;24008;42.664;23.372;2023-04-09T03:06:15;94940.44;;;5.39;100.00
6136;BME280;24008;42.664;23.372;2023-04-09T03:08:43;94944.50;;;5.41;100.00
6136;BME280;24008;42.664;23.372;2023-04-09T03:11:11;94941.84;;;5.43;100.00
6136;BME280;24008;42.664;23.372;2023-04-09T03:13:38;94945.50;;;5.39;100.00
6136;BME280;24008;42.664;23.372;2023-04-09T03:16:05;94896.88;;;5.08;100.00
6136;BME280;24008;42.664;23.372;2023-04-09T03:18:32;94951.78;;;5.33;100.00
6136;BME280;24008;42.664;23.372;2023-04-09T03:20:58;94859.88;;;4.69;100.00
6136;BME280;24008;42.664;23.372;2023-04-09T03:23:25;94916.66;;;5.16;100.00
6136;BME280;24008;42.664;23.372;2023-04-09T03:25:59;94906.09;;;5.10;100.00
6136;BME280;24008;42.664;23.372;2023-04-09T03:28:28;94945.22;;;5.31;100.00
6136;BME280;24008;42.664;23.372;2023-04-09T03:30:54;94942.69;;;5.31;100.00
6136;BME280;24008;42.664;23.372;2023-04-09T03:33:21;94954.66;;;5.29;100.00
6136;BME280;24008;42.664;23.372;2023-04-09T03:35:48;94954.66;;;5.29;100.00
6136;BME280;24008;42.664;23.372;2023-04-09T03:38:15;94912.50;;;5.02;100.00
6136;BME280;24008;42.664;23.372;2023-04-09T03:40:41;94946.31;;;5.27;100.00
6136;BME280;24008;42.664;23.372;2023-04-09T03:43:08;94618.28;;;3.12;100.00
6136;BME280;24008;42.664;23.372;2023-04-09T03:45:36;94954.84;;;5.26;100.00
6136;BME280;24008;42.664;23.372;2023-04-09T03:48:03;94925.47;;;5.11;100.00
6136;BME280;24008;42.664;23.372;2023-04-09T03:50:30;94963.88;;;5.30;100.00
6136;BME280;24008;42.664;23.372;2023-04-09T03:52:57;94959.47;;;5.32;100.00
6136;BME280;24008;42.664;23.372;2023-04-09T03:55:23;94958.47;;;5.34;100.00
6136;BME280;24008;42.664;23.372;2023-04-09T03:57:50;94955.63;;;5.39;100.00
6136;BME280;24008;42.664;23.372;2023-04-09T04:00:17;94877.88;;;4.90;100.00
6136;BME280;24008;42.664;23.372;2023-04-09T04:02:45;94960.06;;;5.48;100.00
6136;BME280;24008;42.664;23.372;2023-04-09T04:05:12;94954.00;;;5.51;100.00
6136;BME280;24008;42.664;23.372;2023-04-09T04:07:38;94968.09;;;5.55;100.00
6136;BME280;24008;42.664;23.372;2023-04-09T04:10:09;94961.88;;;5.59;100.00
6136;BME280;24008;42.664;23.372;2023-04-09T04:12:36;94940.72;;;5.47;100.00
6136;BME280;24008;42.664;23.372;2023-04-09T04:15:03;94943.03;;;5.50;100.00
6136;BME280;24008;42.664;23.372;2023-04-09T04:17:30;94965.53;;;5.67;100.00
6136;BME280;24008;42.664;23.372;2023-04-09T04:19:58;94965.19;;;5.72;100.00
6136;BME280;24008;42.664;23.372;2023-04-09T04:22:25;94710.19;;;4.12;100.00
6136;BME280;24008;42.664;23.372;2023-04-09T04:24:51;94923.75;;;5.60;100.00
6136;BME280;24008;42.664;23.372;2023-04-09T04:27:18;94967.69;;;5.85;100.00
6136;BME280;24008;42.664;23.372;2023-04-09T04:29:45;94965.78;;;5.88;100.00
6136;BME280;24008;42.664;23.372;2023-04-09T04:32:11;94949.88;;;5.73;100.00
6136;BME280;24008;42.664;23.372;2023-04-09T04:34:38;94936.28;;;5.74;100.00
6136;BME280;24008;42.664;23.372;2023-04-09T04:37:06;94903.91;;;5.54;100.00
6136;BME280;24008;42.664;23.372;2023-04-09T04:39:33;94939.88;;;5.83;100.00
6136;BME280;24008;42.664;23.372;2023-04-09T04:42:00;94940.69;;;5.84;100.00
6136;BME280;24008;42.664;23.372;2023-04-09T04:44:26;94937.16;;;5.86;100.00
6136;BME280;24008;42.664;23.372;2023-04-09T04:46:53;94977.06;;;6.08;100.00
6136;BME280;24008;42.664;23.372;2023-04-09T04:49:20;94951.28;;;5.90;99.32
6136;BME280;24008;42.664;23.372;2023-04-09T04:51:47;94980.41;;;6.08;99.26
6136;BME280;24008;42.664;23.372;2023-04-09T04:54:15;94974.94;;;6.14;99.92
6136;BME280;24008;42.664;23.372;2023-04-09T04:56:42;94976.91;;;6.22;99.25
6136;BME280;24008;42.664;23.372;2023-04-09T04:59:08;94976.84;;;6.35;98.97
6136;BME280;24008;42.664;23.372;2023-04-09T05:01:35;94987.38;;;6.41;98.23
6136;BME280;24008;42.664;23.372;2023-04-09T05:04:02;94939.56;;;6.24;97.74
6136;BME280;24008;42.664;23.372;2023-04-09T05:06:29;94981.00;;;6.60;97.78
6136;BME280;24008;42.664;23.372;2023-04-09T05:08:56;94981.25;;;6.68;97.70
6136;BME280;24008;42.664;23.372;2023-04-09T05:11:24;94981.53;;;6.87;96.89
6136;BME280;24008;42.664;23.372;2023-04-09T05:13:51;94984.81;;;7.11;96.09
6136;BME280;24008;42.664;23.372;2023-04-09T05:16:18;94983.31;;;7.42;94.98
6136;BME280;24008;42.664;23.372;2023-04-09T05:18:46;94985.03;;;7.64;93.11
6136;BME280;24008;42.664;23.372;2023-04-09T05:21:13;94946.91;;;7.31;89.88
6136;BME280;24008;42.664;23.372;2023-04-09T05:23:40;94960.22;;;7.45;89.58
6136;BME280;24008;42.664;23.372;2023-04-09T05:26:07;94985.97;;;7.52;89.38
6136;BME280;24008;42.664;23.372;2023-04-09T05:28:35;94992.22;;;7.37;89.94
6136;BME280;24008;42.664;23.372;2023-04-09T05:31:02;94955.94;;;7.12;90.08
6136;BME280;24008;42.664;23.372;2023-04-09T05:33:29;94935.66;;;6.88;90.42
6136;BME280;24008;42.664;23.372;2023-04-09T05:36:02;94993.59;;;7.18;90.49
6136;BME280;24008;42.664;23.372;2023-04-09T05:38:28;94992.66;;;7.19;90.96
6136;BME280;24008;42.664;23.372;2023-04-09T05:40:55;94983.31;;;7.20;90.84
6136;BME280;24008;42.664;23.372;2023-04-09T05:43:27;94986.66;;;7.20;91.21
6136;BME280;24008;42.664;23.372;2023-04-09T05:45:55;94974.97;;;7.07;90.83
6136;BME280;24008;42.664;23.372;2023-04-09T05:48:22;94954.53;;;7.08;90.54
6136;BME280;24008;42.664;23.372;2023-04-09T05:50:49;94982.19;;;7.35;90.69
6136;BME280;24008;42.664;23.372;2023-04-09T05:53:16;94986.47;;;7.46;90.26
6136;BME280;24008;42.664;23.372;2023-04-09T05:55:43;94992.47;;;7.56;89.96
6136;BME280;24008;42.664;23.372;2023-04-09T05:58:10;94989.56;;;7.72;90.25
6136;BME280;24008;42.664;23.372;2023-04-09T06:00:37;94955.44;;;7.74;89.04
6136;BME280;24008;42.664;23.372;2023-04-09T06:03:05;94983.38;;;8.08;86.00
6136;BME280;24008;42.664;23.372;2023-04-09T06:05:32;94985.09;;;8.18;85.42
6136;BME280;24008;42.664;23.372;2023-04-09T06:07:59;94845.91;;;7.44;85.16
6136;BME280;24008;42.664;23.372;2023-04-09T06:10:26;94990.72;;;8.44;84.48
6136;BME280;24008;42.664;23.372;2023-04-09T06:12:53;94987.91;;;8.47;82.21
6136;BME280;24008;42.664;23.372;2023-04-09T06:15:19;94849.72;;;7.81;82.89
6136;BME280;24008;42.664;23.372;2023-04-09T06:17:47;94885.41;;;8.23;82.24
6136;BME280;24008;42.664;23.372;2023-04-09T06:20:15;94995.47;;;9.11;79.29
6136;BME280;24008;42.664;23.372;2023-04-09T06:22:42;94928.25;;;8.71;77.79
6136;BME280;24008;42.664;23.372;2023-04-09T06:25:09;94908.25;;;8.45;76.88
6136;BME280;24008;42.664;23.372;2023-04-09T06:27:36;94922.41;;;8.59;77.15
6136;BME280;24008;42.664;23.372;2023-04-09T06:30:04;94993.28;;;9.07;77.83
6136;BME280;24008;42.664;23.372;2023-04-09T06:32:31;94993.09;;;8.98;78.70
6136;BME280;24008;42.664;23.372;2023-04-09T06:34:58;94882.13;;;8.43;78.98
6136;BME280;24008;42.664;23.372;2023-04-09T06:37:26;94974.69;;;9.46;78.11
6136;BME280;24008;42.664;23.372;2023-04-09T06:39:52;94990.03;;;10.26;75.59
6136;BME280;24008;42.664;23.372;2023-04-09T06:42:19;95003.84;;;11.20;69.70
6136;BME280;24008;42.664;23.372;2023-04-09T06:44:46;94830.44;;;10.87;65.78
6136;BME280;24008;42.664;23.372;2023-04-09T06:47:13;95002.56;;;11.90;63.91
6136;BME280;24008;42.664;23.372;2023-04-09T06:49:40;94966.25;;;11.30;64.08
6136;BME280;24008;42.664;23.372;2023-04-09T06:52:07;95002.69;;;10.66;66.42
6136;BME280;24008;42.664;23.372;2023-04-09T06:54:35;95013.66;;;10.19;67.92
6136;BME280;24008;42.664;23.372;2023-04-09T06:57:02;95003.19;;;9.91;68.77
6136;BME280;24008;42.664;23.372;2023-04-09T06:59:28;95016.13;;;9.59;69.65
6136;BME280;24008;42.664;23.372;2023-04-09T07:01:55;94879.81;;;8.40;69.26
6136;BME280;24008;42.664;23.372;2023-04-09T07:04:22;95002.16;;;9.54;69.78
6136;BME280;24008;42.664;23.372;2023-04-09T07:06:49;95000.66;;;9.91;68.98
6136;BME280;24008;42.664;23.372;2023-04-09T07:09:15;94956.66;;;10.28;67.78
6136;BME280;24008;42.664;23.372;2023-04-09T07:11:44;94960.44;;;10.81;62.65
6136;BME280;24008;42.664;23.372;2023-04-09T07:14:11;95005.78;;;10.99;62.50
6136;BME280;24008;42.664;23.372;2023-04-09T07:16:38;94817.69;;;9.23;63.67
6136;BME280;24008;42.664;23.372;2023-04-09T07:19:05;95004.81;;;9.92;65.73
6136;BME280;24008;42.664;23.372;2023-04-09T07:21:32;94901.28;;;9.19;66.72
6136;BME280;24008;42.664;23.372;2023-04-09T07:23:59;94907.69;;;9.04;65.83
6136;BME280;24008;42.664;23.372;2023-04-09T07:26:34;95012.59;;;9.51;66.32
6136;BME280;24008;42.664;23.372;2023-04-09T07:29:02;95009.31;;;9.39;67.46
6136;BME280;24008;42.664;23.372;2023-04-09T07:31:29;94947.59;;;8.94;66.35
6136;BME280;24008;42.664;23.372;2023-04-09T07:33:57;95013.63;;;9.38;67.12
6136;BME280;24008;42.664;23.372;2023-04-09T07:36:23;94923.88;;;8.93;65.94
6136;BME280;24008;42.664;23.372;2023-04-09T07:38:50;95010.47;;;9.56;65.61
6136;BME280;24008;42.664;23.372;2023-04-09T07:41:17;94924.03;;;9.01;65.75
6136;BME280;24008;42.664;23.372;2023-04-09T07:43:45;94609.75;;;6.98;66.16
6136;BME280;24008;42.664;23.372;2023-04-09T07:46:18;94940.41;;;8.78;66.53
6136;BME280;24008;42.664;23.372;2023-04-09T07:48:46;95029.13;;;9.26;67.54
6136;BME280;24008;42.664;23.372;2023-04-09T07:51:13;94983.97;;;8.96;67.73
6136;BME280;24008;42.664;23.372;2023-04-09T07:53:40;95028.59;;;9.32;67.34
6136;BME280;24008;42.664;23.372;2023-04-09T07:56:07;94980.59;;;8.95;67.46
6136;BME280;24008;42.664;23.372;2023-04-09T07:58:35;95001.19;;;9.03;65.90
6136;BME280;24008;42.664;23.372;2023-04-09T08:01:02;95033.34;;;9.16;66.99
6136;BME280;24008;42.664;23.372;2023-04-09T08:03:30;94627.69;;;6.42;67.43
6136;BME280;24008;42.664;23.372;2023-04-09T08:05:57;94901.41;;;8.14;68.50
6136;BME280;24008;42.664;23.372;2023-04-09T08:08:24;94988.72;;;8.80;67.49
6136;BME280;24008;42.664;23.372;2023-04-09T08:10:50;94972.31;;;8.61;67.00
6136;BME280;24008;42.664;23.372;2023-04-09T08:13:17;94986.06;;;8.70;67.72
6136;BME280;24008;42.664;23.372;2023-04-09T08:15:44;95042.13;;;9.02;68.94
6136;BME280;24008;42.664;23.372;2023-04-09T08:18:11;95038.06;;;9.20;69.20
6136;BME280;24008;42.664;23.372;2023-04-09T08:20:39;95048.75;;;9.35;67.98
6136;BME280;24008;42.664;23.372;2023-04-09T08:23:09;94851.00;;;8.08;68.69
6136;BME280;24008;42.664;23.372;2023-04-09T08:25:36;94924.59;;;8.43;68.04
6136;BME280;24008;42.664;23.372;2023-04-09T08:28:03;94649.72;;;6.41;68.32
6136;BME280;24008;42.664;23.372;2023-04-09T08:30:30;95052.38;;;9.53;68.04
6136;BME280;24008;42.664;23.372;2023-04-09T08:32:58;95047.31;;;9.63;67.44
6136;BME280;24008;42.664;23.372;2023-04-09T08:35:26;94967.53;;;9.10;67.42
6136;BME280;24008;42.664;23.372;2023-04-09T08:37:54;95046.06;;;9.57;67.48
6136;BME280;24008;42.664;23.372;2023-04-09T08:40:22;94939.16;;;8.73;67.67
6136;BME280;24008;42.664;23.372;2023-04-09T08:42:53;95048.31;;;9.51;68.08
6136;BME280;24008;42.664;23.372;2023-04-09T08:45:21;95056.06;;;9.70;68.54
6136;BME280;24008;42.664;23.372;2023-04-09T08:47:51;95038.34;;;9.78;66.02
6136;BME280;24008;42.664;23.372;2023-04-09T08:50:19;94937.75;;;9.10;67.04
6136;BME280;24008;42.664;23.372;2023-04-09T08:52:46;95048.50;;;9.59;67.72
6136;BME280;24008;42.664;23.372;2023-04-09T08:55:14;94965.06;;;8.98;69.30
6136;BME280;24008;42.664;23.372;2023-04-09T08:57:42;95041.72;;;9.48;68.04
6136;BME280;24008;42.664;23.372;2023-04-09T09:00:10;94870.47;;;8.50;67.37
6136;BME280;24008;42.664;23.372;2023-04-09T09:02:38;95030.56;;;9.80;67.98
6136;BME280;24008;42.664;23.372;2023-04-09T09:05:05;95004.66;;;9.74;66.87
6136;BME280;24008;42.664;23.372;2023-04-09T09:07:32;95033.31;;;9.88;67.19
6136;BME280;24008;42.664;23.372;2023-04-09T09:10:00;94980.63;;;9.47;67.08
6136;BME280;24008;42.664;23.372;2023-04-09T09:12:38;95021.81;;;9.72;67.63
6136;BME280;24008;42.664;23.372;2023-04-09T09:15:24;94901.59;;;9.26;68.44
6136;BME280;24008;42.664;23.372;2023-04-09T09:17:53;94817.94;;;8.80;67.47
6136;BME280;24008;42.664;23.372;2023-04-09T09:20:21;94985.63;;;9.88;67.11
6136;BME280;24008;42.664;23.372;2023-04-09T09:22:49;95014.53;;;9.98;67.48
6136;BME280;24008;42.664;23.372;2023-04-09T09:25:16;95015.47;;;10.07;67.07
6136;BME280;24008;42.664;23.372;2023-04-09T09:27:49;95021.16;;;10.10;66.87
6136;BME280;24008;42.664;23.372;2023-04-09T09:30:23;95009.53;;;10.66;65.86
6136;BME280;24008;42.664;23.372;2023-04-09T09:32:53;95006.50;;;11.84;62.55
6136;BME280;24008;42.664;23.372;2023-04-09T09:35:29;94999.00;;;12.46;59.90
6136;BME280;24008;42.664;23.372;2023-04-09T09:38:00;94993.25;;;13.05;57.47
6136;BME280;24008;42.664;23.372;2023-04-09T09:40:29;95001.22;;;13.97;54.79
6136;BME280;24008;42.664;23.372;2023-04-09T09:42:57;94973.03;;;14.38;52.74
6136;BME280;24008;42.664;23.372;2023-04-09T09:45:24;94992.59;;;14.73;51.15
6136;BME280;24008;42.664;23.372;2023-04-09T09:47:51;94988.38;;;14.48;51.66
6136;BME280;24008;42.664;23.372;2023-04-09T09:50:19;94925.53;;;14.74;50.60
6136;BME280;24008;42.664;23.372;2023-04-09T09:52:49;94854.97;;;14.61;50.45
6136;BME280;24008;42.664;23.372;2023-04-09T09:55:22;94984.84;;;14.65;49.01
6136;BME280;24008;42.664;23.372;2023-04-09T09:57:51;94879.38;;;14.24;49.25
6136;BME280;24008;42.664;23.372;2023-04-09T10:00:20;94974.22;;;15.25;48.50
6136;BME280;24008;42.664;23.372;2023-04-09T10:02:54;94997.41;;;15.00;48.36
6136;BME280;24008;42.664;23.372;2023-04-09T10:05:23;94976.13;;;15.47;47.68
6136;BME280;24008;42.664;23.372;2023-04-09T10:07:53;94973.09;;;15.99;46.78
6136;BME280;24008;42.664;23.372;2023-04-09T10:10:20;94970.00;;;16.34;45.63
6136;BME280;24008;42.664;23.372;2023-04-09T10:12:49;94785.81;;;15.21;45.37
6136;BME280;24008;42.664;23.372;2023-04-09T10:15:17;94965.13;;;16.70;43.36
6136;BME280;24008;42.664;23.372;2023-04-09T10:17:45;94963.69;;;16.68;43.70
6136;BME280;24008;42.664;23.372;2023-04-09T10:20:15;94910.13;;;16.70;44.27
6136;BME280;24008;42.664;23.372;2023-04-09T10:22:46;94766.56;;;16.31;42.78
6136;BME280;24008;42.664;23.372;2023-04-09T10:25:14;94929.97;;;16.69;42.39
6136;BME280;24008;42.664;23.372;2023-04-09T10:27:41;94966.47;;;16.35;44.27
6136;BME280;24008;42.664;23.372;2023-04-09T10:30:30;94954.00;;;15.77;46.99
6136;BME280;24008;42.664;23.372;2023-04-09T10:33:08;94960.03;;;15.53;45.21
6136;BME280;24008;42.664;23.372;2023-04-09T10:35:36;94957.06;;;15.09;46.40
6136;BME280;24008;42.664;23.372;2023-04-09T10:38:06;94952.72;;;14.61;47.44
6136;BME280;24008;42.664;23.372;2023-04-09T10:40:34;94786.56;;;13.45;47.45
6136;BME280;24008;42.664;23.372;2023-04-09T10:43:01;94789.34;;;13.84;47.41
6136;BME280;24008;42.664;23.372;2023-04-09T10:45:38;94900.59;;;14.91;46.71
6136;BME280;24008;42.664;23.372;2023-04-09T10:48:11;94886.13;;;14.90;46.79
6136;BME280;24008;42.664;23.372;2023-04-09T10:50:41;94934.69;;;14.93;47.06
6136;BME280;24008;42.664;23.372;2023-04-09T10:53:20;94922.16;;;14.74;47.27
6136;BME280;24008;42.664;23.372;2023-04-09T10:55:48;94872.28;;;14.18;47.56
6136;BME280;24008;42.664;23.372;2023-04-09T10:58:16;94928.81;;;14.26;48.32
6136;BME280;24008;42.664;23.372;2023-04-09T11:00:43;94929.31;;;13.63;49.03
6136;BME280;24008;42.664;23.372;2023-04-09T11:03:25;94929.00;;;13.32;50.63
6136;BME280;24008;42.664;23.372;2023-04-09T11:05:57;94921.94;;;13.09;51.66
6136;BME280;24008;42.664;23.372;2023-04-09T11:08:27;94823.84;;;12.37;51.39
6136;BME280;24008;42.664;23.372;2023-04-09T11:10:55;94921.28;;;12.63;52.38
6136;BME280;24008;42.664;23.372;2023-04-09T11:13:25;94921.06;;;12.21;54.61
6136;BME280;24008;42.664;23.372;2023-04-09T11:15:54;94721.59;;;10.47;55.58
6136;BME280;24008;42.664;23.372;2023-04-09T11:18:22;94753.13;;;10.65;56.35
6136;BME280;24008;42.664;23.372;2023-04-09T11:20:53;94731.88;;;10.28;58.15
6136;BME280;24008;42.664;23.372;2023-04-09T11:23:20;94912.88;;;11.35;59.02
6136;BME280;24008;42.664;23.372;2023-04-09T11:25:48;94912.88;;;11.35;58.05
6136;BME280;24008;42.664;23.372;2023-04-09T11:28:16;94486.94;;;8.77;57.77
6136;BME280;24008;42.664;23.372;2023-04-09T11:30:44;94905.16;;;11.54;56.82
6136;BME280;24008;42.664;23.372;2023-04-09T11:33:12;94906.84;;;11.64;56.08
6136;BME280;24008;42.664;23.372;2023-04-09T11:35:38;94638.19;;;10.19;54.81
6136;BME280;24008;42.664;23.372;2023-04-09T11:38:07;94903.28;;;12.02;53.86
6136;BME280;24008;42.664;23.372;2023-04-09T11:40:35;94895.63;;;12.19;53.06
6136;BME280;24008;42.664;23.372;2023-04-09T11:43:07;94891.00;;;12.41;53.98
6136;BME280;24008;42.664;23.372;2023-04-09T11:45:34;94845.09;;;12.30;53.27
6136;BME280;24008;42.664;23.372;2023-04-09T11:48:01;94887.09;;;12.80;51.67
6136;BME280;24008;42.664;23.372;2023-04-09T11:50:28;94888.28;;;12.86;47.58
6136;BME280;24008;42.664;23.372;2023-04-09T11:52:56;94820.22;;;12.48;45.56
6136;BME280;24008;42.664;23.372;2023-04-09T11:55:26;94888.13;;;12.87;45.35
6136;BME280;24008;42.664;23.372;2023-04-09T11:57:56;94881.88;;;12.90;45.56
6136;BME280;24008;42.664;23.372;2023-04-09T12:00:25;94786.34;;;12.36;44.72
6136;BME280;24008;42.664;23.372;2023-04-09T12:02:59;94879.50;;;12.96;44.11
6136;BME280;24008;42.664;23.372;2023-04-09T12:05:28;94852.16;;;12.79;44.17
6136;BME280;24008;42.664;23.372;2023-04-09T12:07:57;94807.69;;;12.45;43.89
6136;BME280;24008;42.664;23.372;2023-04-09T12:10:31;94866.56;;;12.80;43.85
6136;BME280;24008;42.664;23.372;2023-04-09T12:13:02;94752.03;;;12.11;43.54
6136;BME280;24008;42.664;23.372;2023-04-09T12:15:31;94799.94;;;12.54;43.59
6136;BME280;24008;42.664;23.372;2023-04-09T12:17:58;94811.47;;;12.84;45.21
6136;BME280;24008;42.664;23.372;2023-04-09T12:20:32;94797.66;;;13.11;44.77
6136;BME280;24008;42.664;23.372;2023-04-09T12:23:00;94785.63;;;13.12;43.89
6136;BME280;24008;42.664;23.372;2023-04-09T12:25:30;94871.25;;;13.87;43.73
6136;BME280;24008;42.664;23.372;2023-04-09T12:27:57;94862.59;;;14.04;42.38
6136;BME280;24008;42.664;23.372;2023-04-09T12:30:24;94868.75;;;14.11;42.11
6136;BME280;24008;42.664;23.372;2023-04-09T12:32:52;94865.31;;;13.94;43.00
6136;BME280;24008;42.664;23.372;2023-04-09T12:35:19;94861.75;;;13.79;43.67
6136;BME280;24008;42.664;23.372;2023-04-09T12:37:47;94712.34;;;12.67;43.38
6136;BME280;24008;42.664;23.372;2023-04-09T12:40:13;94860.94;;;13.28;44.61
6136;BME280;24008;42.664;23.372;2023-04-09T12:42:42;94806.06;;;12.95;45.40
6136;BME280;24008;42.664;23.372;2023-04-09T12:45:11;94789.59;;;13.06;46.24
6136;BME280;24008;42.664;23.372;2023-04-09T12:47:38;94768.34;;;13.22;45.74
6136;BME280;24008;42.664;23.372;2023-04-09T12:50:07;94785.44;;;13.39;46.19
6136;BME280;24008;42.664;23.372;2023-04-09T12:52:34;94825.94;;;13.69;44.20
6136;BME280;24008;42.664;23.372;2023-04-09T12:55:02;94810.09;;;13.32;44.57
6136;BME280;24008;42.664;23.372;2023-04-09T12:57:30;94853.16;;;13.46;45.78
6136;BME280;24008;42.664;23.372;2023-04-09T12:59:58;94787.44;;;12.93;46.15
6136;BME280;24008;42.664;23.372;2023-04-09T13:02:25;94847.94;;;13.30;46.69
6136;BME280;24008;42.664;23.372;2023-04-09T13:04:52;94838.34;;;13.32;46.73
6136;BME280;24008;42.664;23.372;2023-04-09T13:07:18;94692.59;;;12.34;47.01